sensor_id;sensor_type;location;lat;lon;timestamp;temperature;humidity
18932;DHT22;9598;50.954;3.112;2023-03-01T00:03:17;3.10;99.90
18932;DHT22;9598;50.954;3.112;2023-03-01T00:08:19;3.10;99.90
18932;DHT22;9598;50.954;3.112;2023-03-01T00:13:21;3.10;99.90
18932;DHT22;9598;50.954;3.112;2023-03-01T00:18:24;3.10;99.90
18932;DHT22;9598;50.954;3.112;2023-03-01T00:23:27;3.00;99.90
18932;DHT22;9598;50.954;3.112;2023-03-01T00:28:29;3.00;99.90
18932;DHT22;9598;50.954;3.112;2023-03-01T00:33:33;3.00;99.90
18932;DHT22;9598;50.954;3.112;2023-03-01T00:38:35;3.00;99.90
18932;DHT22;9598;50.954;3.112;2023-03-01T00:43:38;3.00;99.90
18932;DHT22;9598;50.954;3.112;2023-03-01T00:48:41;2.90;99.90
18932;DHT22;9598;50.954;3.112;2023-03-01T00:53:44;2.80;99.90
18932;DHT22;9598;50.954;3.112;2023-03-01T00:58:47;2.80;99.90
18932;DHT22;9598;50.954;3.112;2023-03-01T01:03:52;2.70;99.90
18932;DHT22;9598;50.954;3.112;2023-03-01T01:08:55;2.70;99.90
18932;DHT22;9598;50.954;3.112;2023-03-01T01:13:58;2.70;99.90
18932;DHT22;9598;50.954;3.112;2023-03-01T01:19:05;2.70;99.90
18932;DHT22;9598;50.954;3.112;2023-03-01T01:24:07;2.70;99.90
18932;DHT22;9598;50.954;3.112;2023-03-01T01:29:10;2.70;99.90
18932;DHT22;9598;50.954;3.112;2023-03-01T01:34:16;2.70;99.90
18932;DHT22;9598;50.954;3.112;2023-03-01T01:39:18;2.70;99.90
18932;DHT22;9598;50.954;3.112;2023-03-01T01:44:22;2.70;99.90
18932;DHT22;9598;50.954;3.112;2023-03-01T01:49:31;2.60;99.90
18932;DHT22;9598;50.954;3.112;2023-03-01T01:54:39;2.60;99.90
18932;DHT22;9598;50.954;3.112;2023-03-01T01:59:47;2.50;99.90
18932;DHT22;9598;50.954;3.112;2023-03-01T02:05:01;2.50;99.90
18932;DHT22;9598;50.954;3.112;2023-03-01T02:10:07;2.50;99.90
18932;DHT22;9598;50.954;3.112;2023-03-01T02:15:10;2.50;99.90
18932;DHT22;9598;50.954;3.112;2023-03-01T02:20:19;2.50;99.90
18932;DHT22;9598;50.954;3.112;2023-03-01T02:25:31;2.50;99.90
18932;DHT22;9598;50.954;3.112;2023-03-01T02:30:37;2.50;99.90
18932;DHT22;9598;50.954;3.112;2023-03-01T02:36:00;2.40;99.90
18932;DHT22;9598;50.954;3.112;2023-03-01T02:41:06;2.40;99.90
18932;DHT22;9598;50.954;3.112;2023-03-01T02:46:14;2.40;99.90
18932;DHT22;9598;50.954;3.112;2023-03-01T02:51:34;2.30;99.90
18932;DHT22;9598;50.954;3.112;2023-03-01T02:56:41;2.30;99.90
18932;DHT22;9598;50.954;3.112;2023-03-01T03:01:46;2.30;99.90
18932;DHT22;9598;50.954;3.112;2023-03-01T03:06:50;2.30;99.90
18932;DHT22;9598;50.954;3.112;2023-03-01T03:11:52;2.30;99.90
18932;DHT22;9598;50.954;3.112;2023-03-01T03:16:56;2.30;99.90
18932;DHT22;9598;50.954;3.112;2023-03-01T03:21:58;2.40;99.90
18932;DHT22;9598;50.954;3.112;2023-03-01T03:27:00;2.30;99.90
18932;DHT22;9598;50.954;3.112;2023-03-01T03:32:04;2.30;99.90
18932;DHT22;9598;50.954;3.112;2023-03-01T03:37:06;2.30;99.90
18932;DHT22;9598;50.954;3.112;2023-03-01T03:42:28;2.30;99.90
18932;DHT22;9598;50.954;3.112;2023-03-01T03:47:31;2.30;99.90
18932;DHT22;9598;50.954;3.112;2023-03-01T03:52:33;2.30;99.90
18932;DHT22;9598;50.954;3.112;2023-03-01T03:57:36;2.30;99.90
18932;DHT22;9598;50.954;3.112;2023-03-01T04:02:39;2.30;99.90
18932;DHT22;9598;50.954;3.112;2023-03-01T04:07:42;2.40;99.90
18932;DHT22;9598;50.954;3.112;2023-03-01T04:12:44;2.30;99.90
18932;DHT22;9598;50.954;3.112;2023-03-01T04:17:48;2.40;99.90
18932;DHT22;9598;50.954;3.112;2023-03-01T04:22:51;2.30;99.90
18932;DHT22;9598;50.954;3.112;2023-03-01T04:27:53;2.30;99.90
18932;DHT22;9598;50.954;3.112;2023-03-01T04:32:57;2.20;99.90
18932;DHT22;9598;50.954;3.112;2023-03-01T04:37:59;2.20;99.90
18932;DHT22;9598;50.954;3.112;2023-03-01T04:43:02;2.20;99.90
18932;DHT22;9598;50.954;3.112;2023-03-01T04:48:06;2.20;99.90
18932;DHT22;9598;50.954;3.112;2023-03-01T04:53:08;2.20;99.90
18932;DHT22;9598;50.954;3.112;2023-03-01T04:58:10;2.20;99.90
18932;DHT22;9598;50.954;3.112;2023-03-01T05:03:14;2.20;99.90
18932;DHT22;9598;50.954;3.112;2023-03-01T05:08:19;2.20;99.90
18932;DHT22;9598;50.954;3.112;2023-03-01T05:13:21;2.20;99.90
18932;DHT22;9598;50.954;3.112;2023-03-01T05:18:26;2.20;99.90
18932;DHT22;9598;50.954;3.112;2023-03-01T05:23:28;2.20;99.90
18932;DHT22;9598;50.954;3.112;2023-03-01T05:28:31;2.20;99.90
18932;DHT22;9598;50.954;3.112;2023-03-01T05:33:35;2.20;99.90
18932;DHT22;9598;50.954;3.112;2023-03-01T05:38:37;2.20;99.90
18932;DHT22;9598;50.954;3.112;2023-03-01T05:43:39;2.20;99.90
18932;DHT22;9598;50.954;3.112;2023-03-01T05:48:45;2.20;99.90
18932;DHT22;9598;50.954;3.112;2023-03-01T05:53:48;2.10;99.90
18932;DHT22;9598;50.954;3.112;2023-03-01T05:58:50;2.10;99.90
18932;DHT22;9598;50.954;3.112;2023-03-01T06:03:54;2.10;99.90
18932;DHT22;9598;50.954;3.112;2023-03-01T06:08:56;2.10;99.90
18932;DHT22;9598;50.954;3.112;2023-03-01T06:13:58;2.10;99.90
18932;DHT22;9598;50.954;3.112;2023-03-01T06:19:01;2.10;99.90
18932;DHT22;9598;50.954;3.112;2023-03-01T06:24:04;2.00;99.90
18932;DHT22;9598;50.954;3.112;2023-03-01T06:29:08;2.00;99.90
18932;DHT22;9598;50.954;3.112;2023-03-01T06:34:11;1.90;99.90
18932;DHT22;9598;50.954;3.112;2023-03-01T06:39:14;1.90;99.90
18932;DHT22;9598;50.954;3.112;2023-03-01T06:44:18;1.90;99.90
18932;DHT22;9598;50.954;3.112;2023-03-01T06:49:21;1.80;99.90
18932;DHT22;9598;50.954;3.112;2023-03-01T06:54:24;1.80;99.90
18932;DHT22;9598;50.954;3.112;2023-03-01T06:59:26;1.70;99.90
18932;DHT22;9598;50.954;3.112;2023-03-01T07:04:29;1.70;99.90
18932;DHT22;9598;50.954;3.112;2023-03-01T07:09:31;1.70;99.90
18932;DHT22;9598;50.954;3.112;2023-03-01T07:14:33;1.70;99.90
18932;DHT22;9598;50.954;3.112;2023-03-01T07:19:37;1.80;99.90
18932;DHT22;9598;50.954;3.112;2023-03-01T07:24:41;1.90;99.90
18932;DHT22;9598;50.954;3.112;2023-03-01T07:29:43;2.00;99.90
18932;DHT22;9598;50.954;3.112;2023-03-01T07:34:46;2.00;99.90
18932;DHT22;9598;50.954;3.112;2023-03-01T07:39:48;2.10;99.90
18932;DHT22;9598;50.954;3.112;2023-03-01T07:44:50;2.20;99.90
18932;DHT22;9598;50.954;3.112;2023-03-01T07:49:54;2.20;99.90
18932;DHT22;9598;50.954;3.112;2023-03-01T07:54:56;2.30;99.90
18932;DHT22;9598;50.954;3.112;2023-03-01T07:59:58;2.40;99.90
18932;DHT22;9598;50.954;3.112;2023-03-01T08:05:02;2.40;99.90
18932;DHT22;9598;50.954;3.112;2023-03-01T08:10:04;2.50;99.90
18932;DHT22;9598;50.954;3.112;2023-03-01T08:15:08;2.60;99.90
18932;DHT22;9598;50.954;3.112;2023-03-01T08:20:12;2.70;99.90
18932;DHT22;9598;50.954;3.112;2023-03-01T08:25:14;2.70;99.90
18932;DHT22;9598;50.954;3.112;2023-03-01T08:30:16;2.80;99.90
18932;DHT22;9598;50.954;3.112;2023-03-01T08:35:20;3.00;99.90
18932;DHT22;9598;50.954;3.112;2023-03-01T08:40:22;3.10;99.90
18932;DHT22;9598;50.954;3.112;2023-03-01T08:45:24;3.30;99.90
18932;DHT22;9598;50.954;3.112;2023-03-01T08:50:28;3.30;99.90
18932;DHT22;9598;50.954;3.112;2023-03-01T08:55:30;3.40;99.90
18932;DHT22;9598;50.954;3.112;2023-03-01T09:00:33;3.50;99.90
18932;DHT22;9598;50.954;3.112;2023-03-01T09:05:36;3.60;99.90
18932;DHT22;9598;50.954;3.112;2023-03-01T09:10:38;3.70;99.90
18932;DHT22;9598;50.954;3.112;2023-03-01T09:15:41;3.80;99.90
18932;DHT22;9598;50.954;3.112;2023-03-01T09:20:44;3.90;99.90
18932;DHT22;9598;50.954;3.112;2023-03-01T09:25:46;4.00;99.90
18932;DHT22;9598;50.954;3.112;2023-03-01T09:30:48;4.10;99.90
18932;DHT22;9598;50.954;3.112;2023-03-01T09:35:56;4.30;99.90
18932;DHT22;9598;50.954;3.112;2023-03-01T09:40:59;4.50;99.90
18932;DHT22;9598;50.954;3.112;2023-03-01T09:46:05;4.60;99.90
18932;DHT22;9598;50.954;3.112;2023-03-01T09:51:17;4.80;99.90
18932;DHT22;9598;50.954;3.112;2023-03-01T09:56:24;4.90;99.90
18932;DHT22;9598;50.954;3.112;2023-03-01T10:01:31;4.90;99.90
18932;DHT22;9598;50.954;3.112;2023-03-01T10:06:36;5.10;99.90
18932;DHT22;9598;50.954;3.112;2023-03-01T10:11:45;5.30;99.90
18932;DHT22;9598;50.954;3.112;2023-03-01T10:16:51;5.30;99.90
18932;DHT22;9598;50.954;3.112;2023-03-01T10:22:00;5.40;99.90
18932;DHT22;9598;50.954;3.112;2023-03-01T10:27:09;5.50;99.90
18932;DHT22;9598;50.954;3.112;2023-03-01T10:32:13;5.70;99.90
18932;DHT22;9598;50.954;3.112;2023-03-01T10:37:18;5.70;99.90
18932;DHT22;9598;50.954;3.112;2023-03-01T10:42:27;5.80;99.90
18932;DHT22;9598;50.954;3.112;2023-03-01T10:47:29;5.90;99.90
18932;DHT22;9598;50.954;3.112;2023-03-01T10:52:35;6.00;99.90
18932;DHT22;9598;50.954;3.112;2023-03-01T10:57:39;6.10;99.90
18932;DHT22;9598;50.954;3.112;2023-03-01T11:02:42;6.20;99.90
18932;DHT22;9598;50.954;3.112;2023-03-01T11:07:50;6.20;99.90
18932;DHT22;9598;50.954;3.112;2023-03-01T11:12:53;6.40;99.90
18932;DHT22;9598;50.954;3.112;2023-03-01T11:18:18;6.40;99.90
18932;DHT22;9598;50.954;3.112;2023-03-01T11:23:22;6.40;99.90
18932;DHT22;9598;50.954;3.112;2023-03-01T11:28:26;6.50;99.90
18932;DHT22;9598;50.954;3.112;2023-03-01T11:33:34;6.70;99.90
18932;DHT22;9598;50.954;3.112;2023-03-01T11:38:40;6.80;99.90
18932;DHT22;9598;50.954;3.112;2023-03-01T11:43:49;6.90;99.90
18932;DHT22;9598;50.954;3.112;2023-03-01T11:49:01;7.00;99.90
18932;DHT22;9598;50.954;3.112;2023-03-01T11:54:16;7.00;99.90
18932;DHT22;9598;50.954;3.112;2023-03-01T12:05:20;7.10;99.90
18932;DHT22;9598;50.954;3.112;2023-03-01T12:10:29;7.20;99.90
18932;DHT22;9598;50.954;3.112;2023-03-01T12:15:43;7.30;99.90
18932;DHT22;9598;50.954;3.112;2023-03-01T12:20:57;7.30;99.90
18932;DHT22;9598;50.954;3.112;2023-03-01T12:26:06;7.30;99.90
18932;DHT22;9598;50.954;3.112;2023-03-01T12:37:00;7.50;99.90
18932;DHT22;9598;50.954;3.112;2023-03-01T12:42:12;7.60;99.90
18932;DHT22;9598;50.954;3.112;2023-03-01T12:47:31;7.60;99.90
18932;DHT22;9598;50.954;3.112;2023-03-01T12:52:40;7.50;99.90
18932;DHT22;9598;50.954;3.112;2023-03-01T12:57:49;7.50;99.90
18932;DHT22;9598;50.954;3.112;2023-03-01T13:03:00;7.50;99.90
18932;DHT22;9598;50.954;3.112;2023-03-01T13:08:10;7.60;99.90
18932;DHT22;9598;50.954;3.112;2023-03-01T13:13:20;7.70;99.90
18932;DHT22;9598;50.954;3.112;2023-03-01T13:18:30;7.80;99.90
18932;DHT22;9598;50.954;3.112;2023-03-01T13:23:35;7.80;99.90
18932;DHT22;9598;50.954;3.112;2023-03-01T13:28:50;7.90;99.90
18932;DHT22;9598;50.954;3.112;2023-03-01T13:33:54;7.90;99.90
18932;DHT22;9598;50.954;3.112;2023-03-01T13:38:57;7.90;99.90
18932;DHT22;9598;50.954;3.112;2023-03-01T13:44:01;7.90;99.90
18932;DHT22;9598;50.954;3.112;2023-03-01T13:49:04;8.00;99.90
18932;DHT22;9598;50.954;3.112;2023-03-01T13:54:11;8.00;99.90
18932;DHT22;9598;50.954;3.112;2023-03-01T13:59:18;7.90;99.90
18932;DHT22;9598;50.954;3.112;2023-03-01T14:04:22;7.90;99.90
18932;DHT22;9598;50.954;3.112;2023-03-01T14:09:28;7.90;99.90
18932;DHT22;9598;50.954;3.112;2023-03-01T14:14:42;7.90;99.90
18932;DHT22;9598;50.954;3.112;2023-03-01T14:19:47;7.90;99.90
18932;DHT22;9598;50.954;3.112;2023-03-01T14:24:50;7.90;99.90
18932;DHT22;9598;50.954;3.112;2023-03-01T14:29:59;7.90;99.90
18932;DHT22;9598;50.954;3.112;2023-03-01T14:35:16;7.80;99.90
18932;DHT22;9598;50.954;3.112;2023-03-01T14:40:23;7.70;99.90
18932;DHT22;9598;50.954;3.112;2023-03-01T14:45:29;7.80;99.90
18932;DHT22;9598;50.954;3.112;2023-03-01T14:50:34;7.80;99.90
18932;DHT22;9598;50.954;3.112;2023-03-01T14:55:37;7.80;99.90
18932;DHT22;9598;50.954;3.112;2023-03-01T15:00:47;7.70;99.90
18932;DHT22;9598;50.954;3.112;2023-03-01T15:05:50;7.70;99.90
18932;DHT22;9598;50.954;3.112;2023-03-01T15:10:59;7.70;99.90
18932;DHT22;9598;50.954;3.112;2023-03-01T15:16:09;7.70;99.90
18932;DHT22;9598;50.954;3.112;2023-03-01T15:21:16;7.70;99.90
18932;DHT22;9598;50.954;3.112;2023-03-01T15:26:23;7.70;99.90
18932;DHT22;9598;50.954;3.112;2023-03-01T15:31:29;7.70;99.90
18932;DHT22;9598;50.954;3.112;2023-03-01T15:36:39;7.60;99.90
18932;DHT22;9598;50.954;3.112;2023-03-01T15:41:47;7.60;99.90
18932;DHT22;9598;50.954;3.112;2023-03-01T15:46:51;7.60;99.90
18932;DHT22;9598;50.954;3.112;2023-03-01T15:51:54;7.60;99.90
18932;DHT22;9598;50.954;3.112;2023-03-01T15:56:56;7.60;99.90
18932;DHT22;9598;50.954;3.112;2023-03-01T16:02:00;7.60;99.90
18932;DHT22;9598;50.954;3.112;2023-03-01T16:07:03;7.60;99.90
18932;DHT22;9598;50.954;3.112;2023-03-01T16:12:08;7.50;99.90
18932;DHT22;9598;50.954;3.112;2023-03-01T16:17:13;7.50;99.90
18932;DHT22;9598;50.954;3.112;2023-03-01T16:22:16;7.50;99.90
18932;DHT22;9598;50.954;3.112;2023-03-01T16:27:18;7.40;99.90
18932;DHT22;9598;50.954;3.112;2023-03-01T16:32:22;7.50;99.90
18932;DHT22;9598;50.954;3.112;2023-03-01T16:37:24;7.40;99.90
18932;DHT22;9598;50.954;3.112;2023-03-01T16:42:26;7.40;99.90
18932;DHT22;9598;50.954;3.112;2023-03-01T16:47:30;7.30;99.90
18932;DHT22;9598;50.954;3.112;2023-03-01T16:52:33;7.40;99.90
18932;DHT22;9598;50.954;3.112;2023-03-01T16:57:36;7.30;99.90
18932;DHT22;9598;50.954;3.112;2023-03-01T17:02:40;7.30;99.90
18932;DHT22;9598;50.954;3.112;2023-03-01T17:07:42;7.20;99.90
18932;DHT22;9598;50.954;3.112;2023-03-01T17:12:47;7.10;99.90
18932;DHT22;9598;50.954;3.112;2023-03-01T17:17:51;7.00;99.90
18932;DHT22;9598;50.954;3.112;2023-03-01T17:22:53;6.90;99.90
18932;DHT22;9598;50.954;3.112;2023-03-01T17:27:55;6.90;99.90
18932;DHT22;9598;50.954;3.112;2023-03-01T17:32:59;6.80;99.90
18932;DHT22;9598;50.954;3.112;2023-03-01T17:38:01;6.80;99.90
18932;DHT22;9598;50.954;3.112;2023-03-01T17:43:04;6.60;99.90
18932;DHT22;9598;50.954;3.112;2023-03-01T17:48:08;6.60;99.90
18932;DHT22;9598;50.954;3.112;2023-03-01T17:53:11;6.50;99.90
18932;DHT22;9598;50.954;3.112;2023-03-01T17:58:13;6.50;99.90
18932;DHT22;9598;50.954;3.112;2023-03-01T18:03:18;6.40;99.90
18932;DHT22;9598;50.954;3.112;2023-03-01T18:08:21;6.40;99.90
18932;DHT22;9598;50.954;3.112;2023-03-01T18:13:23;6.30;99.90
18932;DHT22;9598;50.954;3.112;2023-03-01T18:18:27;6.30;99.90
18932;DHT22;9598;50.954;3.112;2023-03-01T18:23:30;6.20;99.90
18932;DHT22;9598;50.954;3.112;2023-03-01T18:28:33;6.10;99.90
18932;DHT22;9598;50.954;3.112;2023-03-01T18:33:36;6.10;99.90
18932;DHT22;9598;50.954;3.112;2023-03-01T18:38:39;6.00;99.90
18932;DHT22;9598;50.954;3.112;2023-03-01T18:43:41;6.00;99.90
18932;DHT22;9598;50.954;3.112;2023-03-01T18:48:45;5.90;99.90
18932;DHT22;9598;50.954;3.112;2023-03-01T18:53:47;5.80;99.90
18932;DHT22;9598;50.954;3.112;2023-03-01T18:58:50;5.80;99.90
18932;DHT22;9598;50.954;3.112;2023-03-01T19:03:54;5.70;99.90
18932;DHT22;9598;50.954;3.112;2023-03-01T19:08:57;5.70;99.90
18932;DHT22;9598;50.954;3.112;2023-03-01T19:13:59;5.70;99.90
18932;DHT22;9598;50.954;3.112;2023-03-01T19:19:05;5.60;99.90
18932;DHT22;9598;50.954;3.112;2023-03-01T19:24:10;5.60;99.90
18932;DHT22;9598;50.954;3.112;2023-03-01T19:29:14;5.60;99.90
18932;DHT22;9598;50.954;3.112;2023-03-01T19:34:17;5.60;99.90
18932;DHT22;9598;50.954;3.112;2023-03-01T19:39:22;5.60;99.90
18932;DHT22;9598;50.954;3.112;2023-03-01T19:44:24;5.50;99.90
18932;DHT22;9598;50.954;3.112;2023-03-01T19:49:28;5.50;99.90
18932;DHT22;9598;50.954;3.112;2023-03-01T19:54:30;5.50;99.90
18932;DHT22;9598;50.954;3.112;2023-03-01T19:59:32;5.50;99.90
18932;DHT22;9598;50.954;3.112;2023-03-01T20:04:36;5.50;99.90
18932;DHT22;9598;50.954;3.112;2023-03-01T20:09:38;5.50;99.90
18932;DHT22;9598;50.954;3.112;2023-03-01T20:14:41;5.40;99.90
18932;DHT22;9598;50.954;3.112;2023-03-01T20:19:45;5.40;99.90
18932;DHT22;9598;50.954;3.112;2023-03-01T20:24:47;5.30;99.90
18932;DHT22;9598;50.954;3.112;2023-03-01T20:29:49;5.20;99.90
18932;DHT22;9598;50.954;3.112;2023-03-01T20:34:53;5.20;99.90
18932;DHT22;9598;50.954;3.112;2023-03-01T20:39:55;5.20;99.90
18932;DHT22;9598;50.954;3.112;2023-03-01T20:44:57;5.10;99.90
18932;DHT22;9598;50.954;3.112;2023-03-01T20:50:01;5.00;99.90
18932;DHT22;9598;50.954;3.112;2023-03-01T20:55:05;4.90;99.90
18932;DHT22;9598;50.954;3.112;2023-03-01T21:00:09;4.90;99.90
18932;DHT22;9598;50.954;3.112;2023-03-01T21:05:13;4.80;99.90
18932;DHT22;9598;50.954;3.112;2023-03-01T21:10:15;4.80;99.90
18932;DHT22;9598;50.954;3.112;2023-03-01T21:15:18;4.80;99.90
18932;DHT22;9598;50.954;3.112;2023-03-01T21:20:21;4.70;99.90
18932;DHT22;9598;50.954;3.112;2023-03-01T21:25:23;4.60;99.90
18932;DHT22;9598;50.954;3.112;2023-03-01T21:30:34;4.50;99.90
18932;DHT22;9598;50.954;3.112;2023-03-01T21:35:38;4.40;99.90
18932;DHT22;9598;50.954;3.112;2023-03-01T21:40:40;4.40;99.90
18932;DHT22;9598;50.954;3.112;2023-03-01T21:45:42;4.40;99.90
18932;DHT22;9598;50.954;3.112;2023-03-01T21:50:53;4.40;99.90
18932;DHT22;9598;50.954;3.112;2023-03-01T21:55:56;4.40;99.90
18932;DHT22;9598;50.954;3.112;2023-03-01T22:01:05;4.40;99.90
18932;DHT22;9598;50.954;3.112;2023-03-01T22:06:09;4.40;99.90
18932;DHT22;9598;50.954;3.112;2023-03-01T22:11:17;4.30;99.90
18932;DHT22;9598;50.954;3.112;2023-03-01T22:16:23;4.20;99.90
18932;DHT22;9598;50.954;3.112;2023-03-01T22:21:26;4.20;99.90
18932;DHT22;9598;50.954;3.112;2023-03-01T22:26:31;4.10;99.90
18932;DHT22;9598;50.954;3.112;2023-03-01T22:31:33;4.20;99.90
18932;DHT22;9598;50.954;3.112;2023-03-01T22:36:37;4.10;99.90
18932;DHT22;9598;50.954;3.112;2023-03-01T22:41:41;4.00;99.90
18932;DHT22;9598;50.954;3.112;2023-03-01T22:46:45;3.90;99.90
18932;DHT22;9598;50.954;3.112;2023-03-01T22:51:49;3.90;99.90
18932;DHT22;9598;50.954;3.112;2023-03-01T22:56:52;3.90;99.90
18932;DHT22;9598;50.954;3.112;2023-03-01T23:01:55;3.90;99.90
18932;DHT22;9598;50.954;3.112;2023-03-01T23:06:58;3.80;99.90
18932;DHT22;9598;50.954;3.112;2023-03-01T23:12:02;3.80;99.90
18932;DHT22;9598;50.954;3.112;2023-03-01T23:17:07;3.80;99.90
18932;DHT22;9598;50.954;3.112;2023-03-01T23:22:12;3.80;99.90
18932;DHT22;9598;50.954;3.112;2023-03-01T23:27:14;3.80;99.90
18932;DHT22;9598;50.954;3.112;2023-03-01T23:32:17;3.80;99.90
18932;DHT22;9598;50.954;3.112;2023-03-01T23:37:20;3.80;99.90
18932;DHT22;9598;50.954;3.112;2023-03-01T23:42:22;3.80;99.90
18932;DHT22;9598;50.954;3.112;2023-03-01T23:47:24;3.80;99.90
18932;DHT22;9598;50.954;3.112;2023-03-01T23:52:37;3.90;99.90
18932;DHT22;9598;50.954;3.112;2023-03-01T23:57:41;3.80;99.90
